Time;durP1;ratioP1;P1;durP2;ratioP2;P2;SDS_P1;SDS_P2;PMS_P1;PMS_P2;Temp;Humidity;BMP_temperature;BMP_pressure;BME280_temperature;BME280_humidity;BME280_pressure;Samples;Min_cycle;Max_cycle;Signal;HPM_P1;HPM_P2
2022/10/25 00:00:39;;;;;;;2.20;1.00;;;19.50;56.10;;;;;;5135141;28;20054;-10
2022/10/25 00:03:10;;;;;;;1.33;0.90;;;19.50;56.10;;;;;;5135031;28;20409;-10
2022/10/25 00:05:39;;;;;;;1.27;0.88;;;19.50;56.10;;;;;;5134983;28;20442;-10
2022/10/25 00:08:07;;;;;;;1.95;1.17;;;19.40;56.00;;;;;;5135326;28;20047;-10
2022/10/25 00:10:35;;;;;;;1.42;1.00;;;19.50;56.10;;;;;;5135292;28;20050;-10
2022/10/25 00:13:03;;;;;;;1.45;1.00;;;19.50;56.10;;;;;;5135151;28;20039;-10
2022/10/25 00:15:29;;;;;;;2.25;0.90;;;19.40;56.00;;;;;;5134890;28;20074;-10
2022/10/25 00:17:57;;;;;;;1.50;1.00;;;19.40;56.00;;;;;;5134559;28;20536;-10
2022/10/25 00:20:22;;;;;;;2.45;1.10;;;19.40;56.10;;;;;;5134645;28;20134;-10
2022/10/25 00:22:48;;;;;;;1.13;0.80;;;19.40;56.00;;;;;;5134730;28;20130;-10
2022/10/25 00:25:14;;;;;;;1.50;0.90;;;19.40;56.00;;;;;;5134435;28;20555;-10
2022/10/25 00:27:39;;;;;;;1.10;0.93;;;19.40;56.00;;;;;;5134619;28;20082;-10
2022/10/25 00:30:06;;;;;;;2.00;0.82;;;19.40;56.00;;;;;;5134670;28;20054;-10
2022/10/25 00:32:32;;;;;;;1.50;0.90;;;19.40;56.00;;;;;;5134153;28;20111;-10
2022/10/25 00:34:58;;;;;;;1.10;0.90;;;19.40;56.00;;;;;;5134353;28;20055;-10
2022/10/25 00:37:24;;;;;;;1.00;0.88;;;19.40;56.00;;;;;;5134489;28;20087;-10
2022/10/25 00:39:50;;;;;;;3.35;1.05;;;19.40;56.00;;;;;;5134426;28;20051;-10
2022/10/25 00:42:21;;;;;;;1.48;0.90;;;19.40;56.00;;;;;;5135081;28;20136;-10
2022/10/25 00:44:51;;;;;;;1.33;1.10;;;19.40;56.00;;;;;;5114172;28;20058;-10
2022/10/25 00:47:20;;;;;;;3.53;1.05;;;19.40;56.00;;;;;;5134404;28;20062;-10
2022/10/25 00:50:12;;;;;;;2.05;1.10;;;19.40;56.00;;;;;;5134656;28;20501;-10
2022/10/25 00:52:39;;;;;;;0.93;0.80;;;19.40;56.00;;;;;;5133315;28;20383;-10
2022/10/25 00:55:06;;;;;;;1.48;0.95;;;19.40;56.00;;;;;;5134170;28;20444;-10
2022/10/25 00:57:38;;;;;;;1.38;1.05;;;19.40;56.00;;;;;;5134486;28;20047;-10
2022/10/25 01:00:06;;;;;;;2.38;1.02;;;19.40;56.00;;;;;;5134784;28;20047;-10
2022/10/25 01:02:32;;;;;;;1.33;0.90;;;19.40;56.00;;;;;;5133744;28;20063;-10
2022/10/25 01:04:58;;;;;;;1.10;0.93;;;19.40;56.00;;;;;;5133663;27;20075;-10
2022/10/25 01:07:24;;;;;;;1.50;0.90;;;19.40;56.00;;;;;;5133657;28;20051;-10
2022/10/25 01:09:50;;;;;;;2.28;1.20;;;19.40;56.00;;;;;;5134010;28;20100;-10
2022/10/25 01:12:16;;;;;;;1.02;0.93;;;19.40;56.00;;;;;;5134008;28;20047;-10
2022/10/25 01:14:47;;;;;;;1.70;0.90;;;19.40;56.00;;;;;;5134218;28;20096;-10
2022/10/25 01:17:28;;;;;;;1.23;1.00;;;19.40;56.00;;;;;;5133769;28;20107;-10
2022/10/25 01:20:15;;;;;;;1.35;1.00;;;19.40;56.00;;;;;;5133898;28;20055;-10
2022/10/25 01:22:49;;;;;;;2.17;0.95;;;19.40;56.00;;;;;;5134146;28;20074;-10
2022/10/25 01:25:46;;;;;;;2.20;0.98;;;19.40;56.00;;;;;;5133845;28;20487;-10
2022/10/25 01:28:31;;;;;;;0.90;0.70;;;19.40;56.00;;;;;;5133581;28;20506;-10
2022/10/25 01:31:12;;;;;;;1.15;0.90;;;19.40;56.00;;;;;;5134283;28;20050;-10
2022/10/25 01:33:38;;;;;;;;;;;19.40;56.00;;;;;;5134179;28;20051;-10
2022/10/25 01:36:20;;;;;;;1.10;0.80;;;19.40;56.00;;;;;;5133727;28;19915;-10
2022/10/25 01:38:54;;;;;;;1.83;1.38;;;19.40;56.00;;;;;;5133465;28;20048;-10
2022/10/25 01:41:40;;;;;;;1.52;0.90;;;19.40;55.90;;;;;;5133613;28;20053;-10
2022/10/25 01:44:17;;;;;;;2.75;1.10;;;19.40;56.00;;;;;;5133553;28;20455;-10
2022/10/25 01:46:56;;;;;;;1.20;0.88;;;19.40;56.00;;;;;;5133549;28;20052;-10
2022/10/25 01:49:32;;;;;;;1.63;1.00;;;19.40;56.00;;;;;;5133458;28;20055;-10
2022/10/25 01:51:57;;;;;;;1.27;0.90;;;19.40;55.90;;;;;;5133488;28;20051;-10
2022/10/25 01:54:24;;;;;;;1.13;0.82;;;19.40;56.00;;;;;;5133424;28;20055;-10
2022/10/25 01:57:20;;;;;;;2.65;1.00;;;19.40;55.90;;;;;;5133190;28;20054;-10
2022/10/25 02:00:01;;;;;;;1.92;0.88;;;19.40;56.00;;;;;;5133501;28;21486;-10
2022/10/25 02:02:35;;;;;;;1.50;1.05;;;19.40;56.00;;;;;;5133292;28;20066;-10
2022/10/25 02:05:15;;;;;;;2.05;0.93;;;19.40;56.00;;;;;;5132953;28;20055;-10
2022/10/25 02:08:00;;;;;;;1.30;0.95;;;19.40;55.90;;;;;;5133088;28;20058;-10
2022/10/25 02:10:37;;;;;;;1.13;0.80;;;19.40;55.90;;;;;;5133185;28;20103;-10
2022/10/25 02:13:17;;;;;;;1.58;0.93;;;19.40;55.90;;;;;;5133428;28;20496;-10
2022/10/25 02:16:06;;;;;;;1.27;0.93;;;19.40;55.90;;;;;;5133263;27;20086;-10
2022/10/25 02:18:40;;;;;;;1.05;0.82;;;19.40;55.90;;;;;;5136455;28;20047;-10
2022/10/25 02:21:08;;;;;;;1.00;0.60;;;19.40;55.90;;;;;;5136696;28;20080;-10
2022/10/25 02:23:35;;;;;;;0.90;0.80;;;19.40;55.90;;;;;;5136677;28;20521;-10
2022/10/25 02:26:04;;;;;;;1.67;0.98;;;19.40;55.90;;;;;;5136557;28;20092;-10
2022/10/25 02:28:31;;;;;;;1.27;0.88;;;19.40;56.00;;;;;;5118426;28;20047;-10
2022/10/25 02:30:58;;;;;;;1.45;0.90;;;19.40;55.90;;;;;;5118042;28;20483;-10
2022/10/25 02:33:24;;;;;;;1.85;0.88;;;19.40;55.90;;;;;;5136860;28;20055;-10
2022/10/25 02:36:13;;;;;;;1.65;1.00;;;19.40;55.90;;;;;;5136945;28;20378;-10
2022/10/25 02:38:40;;;;;;;0.93;0.60;;;19.40;55.90;;;;;;5136372;28;20055;-10
2022/10/25 02:41:06;;;;;;;1.25;1.05;;;19.40;55.90;;;;;;5136367;28;20088;-10
2022/10/25 02:43:32;;;;;;;1.80;0.90;;;19.40;55.90;;;;;;5136348;28;20043;-10
2022/10/25 02:45:58;;;;;;;1.55;0.85;;;19.40;55.90;;;;;;5117850;28;20051;-10
2022/10/25 02:48:24;;;;;;;1.50;1.00;;;19.40;55.90;;;;;;5136347;28;20406;-10
2022/10/25 02:50:50;;;;;;;1.38;0.85;;;19.40;55.90;;;;;;5136137;28;20058;-10
2022/10/25 02:53:16;;;;;;;1.00;0.90;;;19.40;55.90;;;;;;5136275;28;20051;-10
2022/10/25 02:55:41;;;;;;;1.15;0.90;;;19.40;55.90;;;;;;5136468;28;20085;-10
2022/10/25 02:58:07;;;;;;;1.70;1.00;;;19.40;55.90;;;;;;5136007;28;20046;-10
2022/10/25 03:00:33;;;;;;;1.83;0.80;;;19.40;55.90;;;;;;5117731;28;20086;-10
2022/10/25 03:03:00;;;;;;;3.00;1.00;;;19.40;55.90;;;;;;5136039;28;20486;-10
2022/10/25 03:05:27;;;;;;;1.92;0.95;;;19.40;55.90;;;;;;5135971;28;20058;-10
2022/10/25 03:07:53;;;;;;;1.17;0.88;;;19.40;55.90;;;;;;5135913;28;20406;-10
2022/10/25 03:10:18;;;;;;;1.95;0.90;;;19.40;55.90;;;;;;5135667;28;20055;-10
2022/10/25 03:12:44;;;;;;;1.83;0.93;;;19.40;55.90;;;;;;5136508;28;20058;-10
2022/10/25 03:15:09;;;;;;;1.00;0.75;;;19.40;55.90;;;;;;5135583;28;20047;-10
2022/10/25 03:17:35;;;;;;;1.60;1.05;;;19.40;55.90;;;;;;5135651;28;20475;-10
2022/10/25 03:20:02;;;;;;;1.80;0.90;;;19.40;55.90;;;;;;5135905;28;20059;-10
2022/10/25 03:22:27;;;;;;;1.52;1.00;;;19.50;55.90;;;;;;5135393;28;20051;-10
2022/10/25 03:24:53;;;;;;;1.98;1.10;;;19.50;55.80;;;;;;5135698;28;20051;-10
2022/10/25 03:27:18;;;;;;;0.80;0.80;;;19.50;55.80;;;;;;5135061;27;20047;-10
2022/10/25 03:29:44;;;;;;;1.02;0.93;;;19.60;55.70;;;;;;5134841;28;20134;-10
2022/10/25 03:32:09;;;;;;;1.33;0.70;;;19.60;55.70;;;;;;5136137;28;20043;-10
2022/10/25 03:34:35;;;;;;;2.30;0.93;;;19.60;55.50;;;;;;5135569;28;20491;-10
2022/10/25 03:37:00;;;;;;;1.05;0.82;;;19.60;55.40;;;;;;5135983;28;20047;-10
2022/10/25 03:39:26;;;;;;;2.45;1.08;;;19.70;55.50;;;;;;5135413;28;20059;-10
2022/10/25 03:41:51;;;;;;;1.25;0.85;;;19.70;55.90;;;;;;5135403;28;20074;-10
2022/10/25 03:44:17;;;;;;;2.42;0.95;;;19.70;55.40;;;;;;5135458;28;20452;-10
2022/10/25 03:46:42;;;;;;;1.23;0.77;;;19.70;55.40;;;;;;5135588;28;20047;-10
2022/10/25 03:49:08;;;;;;;2.25;1.10;;;19.70;55.40;;;;;;5135260;28;20051;-10
2022/10/25 03:51:34;;;;;;;1.63;0.80;;;19.70;55.40;;;;;;5135239;28;20099;-10
2022/10/25 03:53:59;;;;;;;2.40;1.02;;;19.70;55.50;;;;;;5135816;28;20498;-10
2022/10/25 03:56:25;;;;;;;1.73;0.77;;;19.70;55.60;;;;;;5135083;28;20067;-10
2022/10/25 03:58:52;;;;;;;1.10;0.90;;;19.70;55.60;;;;;;5135187;28;20043;-10
2022/10/25 04:01:17;;;;;;;0.93;0.90;;;19.70;55.70;;;;;;5135635;28;20058;-10
2022/10/25 04:03:44;;;;;;;1.20;0.82;;;19.70;55.60;;;;;;5135398;28;20043;-10
2022/10/25 04:06:09;;;;;;;1.05;0.73;;;19.70;55.60;;;;;;5135020;28;20138;-10
2022/10/25 04:08:37;;;;;;;1.80;1.10;;;19.70;55.60;;;;;;5134998;28;20493;-10
2022/10/25 04:11:03;;;;;;;1.52;0.90;;;19.70;55.70;;;;;;5134938;28;20054;-10
2022/10/25 04:13:28;;;;;;;0.70;0.70;;;19.70;55.70;;;;;;5134936;28;20433;-10
2022/10/25 04:15:54;;;;;;;1.45;0.80;;;19.70;55.60;;;;;;5134727;28;20095;-10
2022/10/25 04:18:20;;;;;;;1.27;0.88;;;19.70;55.60;;;;;;5134793;28;20130;-10
2022/10/25 04:20:45;;;;;;;1.33;1.08;;;19.70;55.60;;;;;;5135406;28;20049;-10
2022/10/25 04:23:11;;;;;;;1.42;1.00;;;19.70;55.60;;;;;;5134790;28;20051;-10
2022/10/25 04:25:37;;;;;;;1.38;1.00;;;19.70;55.60;;;;;;5135208;28;20055;-10
2022/10/25 04:28:04;;;;;;;1.17;0.80;;;19.70;55.60;;;;;;5134637;28;20050;-10
2022/10/25 04:30:32;;;;;;;2.00;1.33;;;19.60;55.50;;;;;;5134895;28;20047;-10
2022/10/25 04:32:58;;;;;;;1.08;0.80;;;19.60;55.50;;;;;;5134681;28;20391;-10
2022/10/25 04:35:24;;;;;;;1.63;0.98;;;19.60;55.70;;;;;;5134517;28;20050;-10
2022/10/25 04:37:50;;;;;;;1.05;0.70;;;19.60;55.70;;;;;;5134468;28;20047;-10
2022/10/25 04:40:16;;;;;;;1.10;0.80;;;19.60;55.80;;;;;;5133574;27;20395;-10
2022/10/25 04:42:42;;;;;;;1.80;1.10;;;19.60;55.80;;;;;;5134354;28;20054;-10
2022/10/25 04:45:08;;;;;;;1.50;0.98;;;19.50;55.80;;;;;;5113990;28;20055;-10
2022/10/25 04:47:34;;;;;;;1.15;0.90;;;19.50;55.90;;;;;;5115169;28;20511;-10
2022/10/25 04:49:59;;;;;;;0.98;0.90;;;19.50;55.90;;;;;;5134366;28;20126;-10
2022/10/25 04:52:27;;;;;;;1.48;0.70;;;19.50;56.00;;;;;;5134307;28;20054;-10
2022/10/25 04:54:52;;;;;;;2.95;1.25;;;19.50;56.00;;;;;;5134283;28;20468;-10
2022/10/25 04:57:18;;;;;;;1.20;1.02;;;19.50;56.00;;;;;;5133919;28;20043;-10
2022/10/25 04:59:43;;;;;;;1.52;0.88;;;19.50;56.00;;;;;;5134395;28;20479;-9
2022/10/25 05:02:09;;;;;;;1.63;0.85;;;19.50;56.00;;;;;;5134130;28;20043;-10
2022/10/25 05:04:35;;;;;;;1.45;1.13;;;19.50;56.10;;;;;;5134677;28;20099;-10
2022/10/25 05:07:01;;;;;;;0.80;0.80;;;19.50;56.10;;;;;;5134129;28;20055;-10
2022/10/25 05:09:26;;;;;;;1.88;1.00;;;19.50;56.00;;;;;;5133940;28;20487;-10
2022/10/25 05:11:52;;;;;;;1.13;0.95;;;19.50;56.00;;;;;;5134600;28;20602;-10
2022/10/25 05:14:17;;;;;;;1.33;0.88;;;19.50;56.00;;;;;;5133977;28;20458;-10
2022/10/25 05:16:43;;;;;;;0.93;0.70;;;19.50;56.00;;;;;;5133889;28;20414;-10
2022/10/25 05:19:08;;;;;;;1.70;1.02;;;19.50;56.10;;;;;;5133783;28;20059;-10
2022/10/25 05:21:34;;;;;;;1.92;0.90;;;19.50;56.10;;;;;;5133886;28;20061;-10
2022/10/25 05:24:00;;;;;;;1.35;0.88;;;19.50;56.10;;;;;;5133918;28;20047;-10
2022/10/25 05:26:26;;;;;;;0.70;0.70;;;19.50;56.00;;;;;;5133766;28;20491;-10
2022/10/25 05:28:53;;;;;;;1.63;1.15;;;19.50;56.10;;;;;;5133824;28;20058;-10
2022/10/25 05:31:24;;;;;;;1.50;0.88;;;19.50;56.10;;;;;;5133861;28;20055;-10
2022/10/25 05:33:52;;;;;;;1.90;1.27;;;19.50;56.10;;;;;;5134130;28;20133;-10
2022/10/25 05:36:18;;;;;;;2.15;0.95;;;19.50;56.10;;;;;;5134194;28;20131;-10
2022/10/25 05:38:44;;;;;;;0.98;0.90;;;19.50;56.10;;;;;;5133601;28;20058;-10
2022/10/25 05:41:11;;;;;;;1.13;0.80;;;19.50;56.00;;;;;;5133634;28;20051;-10
2022/10/25 05:43:37;;;;;;;1.05;0.77;;;19.50;56.00;;;;;;5133912;28;20054;-10
2022/10/25 05:46:06;;;;;;;1.63;0.85;;;19.60;56.00;;;;;;5115472;28;20055;-10
2022/10/25 05:48:33;;;;;;;1.17;0.90;;;19.60;55.90;;;;;;5133803;28;20039;-10
2022/10/25 05:51:16;;;;;;;1.20;0.90;;;19.60;55.90;;;;;;5133924;27;20047;-10
2022/10/25 05:53:47;;;;;;;1.05;0.70;;;19.60;55.80;;;;;;5137079;28;20055;-10
2022/10/25 05:56:13;;;;;;;2.35;1.15;;;19.60;55.90;;;;;;5136965;28;20059;-10
2022/10/25 05:58:40;;;;;;;1.63;0.95;;;19.60;55.90;;;;;;5136949;28;20054;-11
2022/10/25 06:01:08;;;;;;;4.55;1.33;;;19.60;55.90;;;;;;5137307;28;20043;-10
2022/10/25 06:03:33;;;;;;;1.63;1.08;;;19.60;55.90;;;;;;5137509;28;20408;-10
2022/10/25 06:06:01;;;;;;;1.38;0.85;;;19.60;55.90;;;;;;5136604;28;20051;-11
2022/10/25 06:08:27;;;;;;;1.85;0.90;;;19.60;55.90;;;;;;5137296;28;20058;-10
2022/10/25 06:10:53;;;;;;;1.25;0.82;;;19.60;55.90;;;;;;5136780;28;20083;-10
2022/10/25 06:13:18;;;;;;;2.00;1.10;;;19.60;55.80;;;;;;5136956;28;20127;-11
2022/10/25 06:15:44;;;;;;;3.08;1.30;;;19.70;55.90;;;;;;5136500;28;20055;-11
2022/10/25 06:18:10;;;;;;;2.03;1.00;;;19.60;55.80;;;;;;5136421;28;20046;-11
2022/10/25 06:20:37;;;;;;;1.23;1.00;;;19.60;55.80;;;;;;5136557;28;20049;-11
2022/10/25 06:23:04;;;;;;;2.45;1.20;;;19.70;55.70;;;;;;5136486;28;20485;-11
2022/10/25 06:25:31;;;;;;;1.40;1.00;;;19.70;55.70;;;;;;5136526;28;20122;-11
2022/10/25 06:27:58;;;;;;;1.80;1.05;;;19.70;55.70;;;;;;5136476;28;20431;-11
2022/10/25 06:30:24;;;;;;;2.15;1.17;;;19.70;55.70;;;;;;5136335;28;20047;-11
2022/10/25 06:32:49;;;;;;;1.38;1.17;;;19.70;55.80;;;;;;5136364;28;20055;-11
2022/10/25 06:35:18;;;;;;;1.42;1.10;;;19.60;55.70;;;;;;5136097;28;20055;-11
2022/10/25 06:37:43;;;;;;;2.22;1.23;;;19.60;55.80;;;;;;5135954;28;20432;-11
2022/10/25 06:40:10;;;;;;;2.95;1.52;;;19.60;55.80;;;;;;5117779;28;20055;-11
2022/10/25 06:42:35;;;;;;;1.63;1.40;;;19.60;55.90;;;;;;5136038;28;20071;-11
2022/10/25 06:45:01;;;;;;;2.25;1.20;;;19.60;56.00;;;;;;5136079;28;20262;-11
2022/10/25 06:47:26;;;;;;;1.90;0.95;;;19.60;55.90;;;;;;5136311;28;20043;-11
2022/10/25 06:49:52;;;;;;;1.10;0.98;;;19.60;55.90;;;;;;5136114;28;20058;-11
2022/10/25 06:52:17;;;;;;;1.35;1.25;;;19.60;56.00;;;;;;5136215;28;20107;-11
2022/10/25 06:54:43;;;;;;;1.58;0.90;;;19.60;55.90;;;;;;5118184;28;20055;-11
2022/10/25 06:57:08;;;;;;;2.28;1.10;;;19.60;56.00;;;;;;5135883;28;20059;-11
2022/10/25 06:59:34;;;;;;;1.70;1.10;;;19.60;56.00;;;;;;5135955;28;20055;-11
2022/10/25 07:01:59;;;;;;;1.20;1.10;;;19.60;56.00;;;;;;5135571;27;20058;-11
2022/10/25 07:04:25;;;;;;;1.40;1.05;;;19.60;56.00;;;;;;5135786;28;20047;-11
2022/10/25 07:06:51;;;;;;;1.35;0.93;;;19.60;56.00;;;;;;5135712;28;20055;-11
2022/10/25 07:09:16;;;;;;;2.30;1.20;;;19.60;56.10;;;;;;5135866;28;20051;-11
2022/10/25 07:11:44;;;;;;;2.35;1.15;;;19.60;56.10;;;;;;5136344;28;20054;-11
2022/10/25 07:14:10;;;;;;;1.10;1.00;;;19.60;56.10;;;;;;5135841;28;20083;-11
2022/10/25 07:16:36;;;;;;;1.58;1.00;;;19.60;56.10;;;;;;5135299;28;20456;-11
2022/10/25 07:19:03;;;;;;;2.78;1.15;;;19.60;56.10;;;;;;5135740;28;20141;-11
2022/10/25 07:21:30;;;;;;;1.85;1.20;;;19.60;56.10;;;;;;5135817;28;20043;-11
2022/10/25 07:23:56;;;;;;;1.63;1.20;;;19.50;56.10;;;;;;5135653;28;20043;-11
2022/10/25 07:26:32;;;;;;;3.22;1.00;;;19.60;56.00;;;;;;5135467;28;20055;-11
2022/10/25 07:28:59;;;;;;;2.33;1.10;;;19.60;56.00;;;;;;5135040;28;20059;-11
2022/10/25 07:31:28;;;;;;;1.67;1.20;;;19.60;56.00;;;;;;5134821;28;20046;-11
2022/10/25 07:33:55;;;;;;;3.97;1.45;;;19.60;55.90;;;;;;5135617;28;20129;-11
2022/10/25 07:36:21;;;;;;;3.17;1.48;;;19.60;56.00;;;;;;5135872;28;20047;-11
2022/10/25 07:38:47;;;;;;;4.47;1.50;;;19.60;56.10;;;;;;5135103;28;20141;-11
2022/10/25 07:41:13;;;;;;;4.20;1.75;;;19.60;56.30;;;;;;5135204;28;20130;-11
2022/10/25 07:43:39;;;;;;;2.10;1.42;;;19.70;56.30;;;;;;5134718;28;20043;-11
2022/10/25 07:46:05;;;;;;;6.03;1.83;;;19.70;56.40;;;;;;5116612;28;20055;-11
2022/10/25 07:48:32;;;;;;;3.85;1.83;;;19.70;56.50;;;;;;5134956;28;20433;-11
2022/10/25 07:51:05;;;;;;;3.42;2.20;;;19.70;56.60;;;;;;5135051;28;20039;-11
2022/10/25 07:53:31;;;;;;;4.55;2.08;;;19.70;56.50;;;;;;5135579;28;20080;-11
2022/10/25 07:55:57;;;;;;;2.60;1.58;;;19.80;56.50;;;;;;5134487;28;20047;-11
2022/10/25 07:58:23;;;;;;;4.05;2.00;;;19.80;56.40;;;;;;5134270;28;20039;-11
2022/10/25 08:00:49;;;;;;;4.82;2.38;;;19.80;56.40;;;;;;5134891;28;20055;-11
2022/10/25 08:03:17;;;;;;;3.25;1.88;;;19.80;56.40;;;;;;5134918;28;20544;-10
2022/10/25 08:05:44;;;;;;;2.63;1.75;;;19.80;56.30;;;;;;5134623;28;20062;-10
2022/10/25 08:08:11;;;;;;;3.88;2.10;;;19.80;56.30;;;;;;5134627;28;20096;-10
2022/10/25 08:10:37;;;;;;;3.60;1.73;;;19.90;56.40;;;;;;5134745;28;20051;-10
2022/10/25 08:13:03;;;;;;;4.40;1.95;;;19.80;56.30;;;;;;5134613;28;20052;-10
2022/10/25 08:15:28;;;;;;;4.47;1.85;;;19.90;56.40;;;;;;5133706;27;20513;-11
2022/10/25 08:18:02;;;;;;;3.50;1.70;;;19.80;56.40;;;;;;5134881;28;20054;-11
2022/10/25 08:20:29;;;;;;;4.28;2.03;;;19.80;56.60;;;;;;5131366;28;20106;-13
2022/10/25 08:23:01;;;;;;;4.13;1.63;;;19.80;56.70;;;;;;5132407;28;20058;-11
2022/10/25 08:25:28;;;;;;;2.13;1.70;;;19.80;56.80;;;;;;5132703;28;20207;-11
2022/10/25 08:27:54;;;;;;;3.45;1.92;;;19.80;56.70;;;;;;5132179;28;20448;-12
2022/10/25 08:30:20;;;;;;;3.58;1.88;;;19.80;56.60;;;;;;5133908;28;20063;-11
2022/10/25 08:32:45;;;;;;;4.43;1.95;;;19.80;56.60;;;;;;5133904;28;20047;-11
2022/10/25 08:35:11;;;;;;;4.10;1.92;;;19.80;56.70;;;;;;5134430;28;20047;-11
2022/10/25 08:37:37;;;;;;;4.05;1.90;;;19.80;56.70;;;;;;5134014;28;20062;-11
2022/10/25 08:40:04;;;;;;;6.47;2.08;;;19.80;56.70;;;;;;5133985;28;20142;-11
2022/10/25 08:42:48;;;;;;;5.97;2.38;;;19.80;56.60;;;;;;5133397;28;20073;-12
2022/10/25 08:45:27;;;;;;;2.03;1.80;;;19.80;56.50;;;;;;5131774;28;20078;-12
2022/10/25 08:47:55;;;;;;;4.45;1.85;;;19.80;56.40;;;;;;5133102;28;20130;-12
2022/10/25 08:50:42;;;;;;;2.92;1.90;;;19.80;56.40;;;;;;5133332;28;20055;-11
2022/10/25 08:53:18;;;;;;;4.75;1.90;;;19.90;56.30;;;;;;5133347;28;20089;-11
2022/10/25 08:55:45;;;;;;;3.45;2.17;;;19.90;56.20;;;;;;5133632;28;20047;-11
2022/10/25 08:58:21;;;;;;;2.88;1.27;;;19.90;56.20;;;;;;5134042;28;20059;-11
2022/10/25 09:00:47;;;;;;;2.42;1.80;;;19.90;56.20;;;;;;5134324;28;20047;-10
2022/10/25 09:03:23;;;;;;;2.80;1.75;;;19.90;56.20;;;;;;5133885;28;20129;-9
2022/10/25 09:06:22;;;;;;;3.20;1.90;;;19.90;56.20;;;;;;5116954;28;20051;-9
2022/10/25 09:08:59;;;;;;;2.33;1.70;;;19.90;56.10;;;;;;5133699;28;20509;-9
2022/10/25 09:11:40;;;;;;;3.50;1.83;;;19.90;56.00;;;;;;5134023;28;20075;-9
2022/10/25 09:14:24;;;;;;;1.40;1.27;;;19.90;56.00;;;;;;5133626;28;20050;-9
2022/10/25 09:16:54;;;;;;;6.10;1.80;;;19.90;56.00;;;;;;5133798;28;20074;-9
2022/10/25 09:19:40;;;;;;;3.53;1.95;;;19.90;56.10;;;;;;5133655;28;20451;-12
2022/10/25 09:22:27;;;;;;;2.80;1.90;;;19.80;56.20;;;;;;5113533;28;20402;-11
2022/10/25 09:25:11;;;;;;;3.13;1.77;;;19.80;56.20;;;;;;5133892;27;20043;-11
2022/10/25 09:27:53;;;;;;;2.95;1.95;;;19.80;56.40;;;;;;5133614;28;20047;-11
2022/10/25 09:30:20;;;;;;;3.95;2.05;;;19.80;56.40;;;;;;5133819;28;20127;-11
2022/10/25 09:32:53;;;;;;;2.67;1.83;;;19.80;56.90;;;;;;5134106;28;20103;-10
2022/10/25 09:35:34;;;;;;;5.35;2.00;;;19.80;56.50;;;;;;5133597;28;20566;-11
2022/10/25 09:38:09;;;;;;;4.60;2.38;;;19.80;56.40;;;;;;5133838;28;20448;-11
2022/10/25 09:40:44;;;;;;;4.30;2.17;;;19.90;56.50;;;;;;5133567;28;20096;-11
2022/10/25 09:43:17;;;;;;;3.83;1.90;;;19.90;56.50;;;;;;5133324;28;20407;-11
2022/10/25 09:45:48;;;;;;;3.00;2.03;;;19.90;56.50;;;;;;5133464;28;20051;-11
2022/10/25 09:48:19;;;;;;;2.23;1.43;;;19.90;56.50;;;;;;5133461;28;20079;-11
2022/10/25 09:50:54;;;;;;;2.83;1.75;;;19.90;56.50;;;;;;5133406;28;20055;-11
2022/10/25 09:53:19;;;;;;;2.35;1.88;;;19.90;56.40;;;;;;5133930;28;20134;-11
2022/10/25 09:55:54;;;;;;;3.47;1.90;;;19.90;56.50;;;;;;5133194;28;20082;-11
2022/10/25 09:58:24;;;;;;;4.63;2.08;;;19.90;56.50;;;;;;5133220;28;20073;-11
2022/10/25 10:00:52;;;;;;;3.47;2.08;;;19.90;56.50;;;;;;5133679;28;20498;-11
2022/10/25 10:03:20;;;;;;;4.13;2.00;;;19.90;56.50;;;;;;5133216;28;20043;-11
2022/10/25 10:05:55;;;;;;;5.60;1.77;;;19.90;56.40;;;;;;5133087;28;20135;-11
2022/10/25 10:08:23;;;;;;;3.22;1.70;;;19.90;56.30;;;;;;5133526;28;20475;-11
2022/10/25 10:10:51;;;;;;;3.45;1.70;;;19.90;56.50;;;;;;5133146;28;20051;-11
2022/10/25 10:13:28;;;;;;;3.17;2.22;;;19.90;56.50;;;;;;5114568;28;20091;-11
2022/10/25 10:15:58;;;;;;;3.45;1.80;;;19.90;56.50;;;;;;5133394;28;20502;-11
2022/10/25 10:18:31;;;;;;;2.30;1.67;;;19.90;56.50;;;;;;5132913;28;20104;-11
2022/10/25 10:21:08;;;;;;;2.60;1.92;;;19.90;56.50;;;;;;5133059;28;20051;-11
2022/10/25 10:23:54;;;;;;;4.20;1.75;;;19.90;56.50;;;;;;5132892;28;20047;-11
2022/10/25 10:26:21;;;;;;;2.78;2.05;;;19.90;56.60;;;;;;5132808;28;20070;-11
2022/10/25 10:28:54;;;;;;;3.03;1.85;;;19.90;56.60;;;;;;5132901;28;20051;-11
2022/10/25 10:31:21;;;;;;;2.35;1.60;;;19.90;56.60;;;;;;5132951;28;20074;-11
2022/10/25 10:33:49;;;;;;;3.17;1.98;;;19.90;56.60;;;;;;5114527;28;20441;-11
2022/10/25 10:36:27;;;;;;;3.17;1.80;;;19.90;56.70;;;;;;5132915;28;20063;-11
2022/10/25 10:38:54;;;;;;;3.97;1.98;;;19.90;56.60;;;;;;5135396;28;20046;-11
2022/10/25 10:41:24;;;;;;;5.18;2.22;;;19.90;56.70;;;;;;5136372;28;20085;-11
2022/10/25 10:43:51;;;;;;;3.85;1.85;;;19.90;56.70;;;;;;5135948;28;20051;-12
2022/10/25 10:46:23;;;;;;;2.17;1.80;;;19.90;56.70;;;;;;5135037;28;20371;-11
2022/10/25 10:48:55;;;;;;;3.55;2.05;;;19.90;56.60;;;;;;5136456;28;20433;-11
2022/10/25 10:51:35;;;;;;;2.97;2.10;;;19.90;56.50;;;;;;5134350;28;20107;-12
2022/10/25 10:54:24;;;;;;;3.10;1.70;;;19.90;56.50;;;;;;5115506;28;20055;-17
2022/10/25 10:57:04;;;;;;;2.85;1.90;;;19.90;56.50;;;;;;5134630;28;20502;-11
2022/10/25 10:59:41;;;;;;;3.05;1.88;;;19.90;56.50;;;;;;5135199;28;20135;-11
2022/10/25 11:02:35;;;;;;;5.65;1.92;;;19.90;56.40;;;;;;5135447;28;20133;-11
2022/10/25 11:05:01;;;;;;;2.42;1.48;;;20.00;56.30;;;;;;5117156;28;20063;-11
2022/10/25 11:07:32;;;;;;;4.55;1.75;;;20.00;56.20;;;;;;5135926;28;20087;-10
2022/10/25 11:10:14;;;;;;;3.13;2.08;;;20.00;56.20;;;;;;5135877;28;20083;-11
2022/10/25 11:12:41;;;;;;;3.03;1.73;;;20.00;56.20;;;;;;5135845;28;20483;-11
2022/10/25 11:15:13;;;;;;;4.57;2.40;;;20.00;56.10;;;;;;5135725;28;20058;-11
2022/10/25 11:17:53;;;;;;;3.40;1.85;;;20.00;56.00;;;;;;5136404;28;20100;-11
2022/10/25 11:20:24;;;;;;;3.50;1.90;;;20.00;56.00;;;;;;5135414;28;20055;-11
2022/10/25 11:22:58;;;;;;;3.30;1.75;;;20.00;56.00;;;;;;5135826;28;20196;-11
2022/10/25 11:25:51;;;;;;;2.72;1.90;;;20.00;56.00;;;;;;5135647;28;20063;-11
2022/10/25 11:28:36;;;;;;;5.60;2.15;;;20.00;55.90;;;;;;5135957;28;20047;-12
2022/10/25 11:31:33;;;;;;;2.45;1.77;;;20.00;55.90;;;;;;5135485;28;20134;-11
2022/10/25 11:34:17;;;;;;;5.05;1.73;;;20.00;55.90;;;;;;5135169;28;20054;-11
2022/10/25 11:37:02;;;;;;;4.38;1.92;;;20.10;56.30;;;;;;5135336;28;20047;-11
2022/10/25 11:40:10;;;;;;;2.65;1.70;;;20.10;56.10;;;;;;5135578;28;20039;-11
2022/10/25 11:43:16;;;;;;;4.93;2.00;;;20.10;55.90;;;;;;5134985;28;20093;-11
2022/10/25 11:45:43;;;;;;;3.15;1.73;;;20.20;55.70;;;;;;5115082;28;20433;-12
2022/10/25 11:48:36;;;;;;;3.05;1.40;;;20.20;55.50;;;;;;5135046;27;20043;-11
2022/10/25 11:51:05;;;;;;;2.83;2.05;;;20.20;55.60;;;;;;5135344;28;20039;-11
2022/10/25 11:53:57;;;;;;;3.03;1.70;;;20.20;55.60;;;;;;5135195;28;20055;-11
2022/10/25 11:56:43;;;;;;;3.88;1.90;;;20.20;55.60;;;;;;5135247;28;20047;-12
2022/10/25 11:59:44;;;;;;;3.05;1.63;;;20.20;55.60;;;;;;5135106;28;20533;-11
2022/10/25 12:02:28;;;;;;;2.67;1.90;;;20.20;55.60;;;;;;5135009;28;20116;-11
2022/10/25 12:05:21;;;;;;;5.10;1.80;;;20.10;55.60;;;;;;5135168;28;20057;-11
2022/10/25 12:08:03;;;;;;;3.05;1.85;;;20.10;55.60;;;;;;5134823;28;20047;-11
2022/10/25 12:10:36;;;;;;;1.98;1.52;;;20.10;55.60;;;;;;5134876;28;20148;-11
2022/10/25 12:13:18;;;;;;;4.45;1.85;;;20.10;55.60;;;;;;5134806;28;20051;-22
2022/10/25 12:15:52;;;;;;;3.67;2.20;;;20.10;55.70;;;;;;5135184;28;20130;-11
2022/10/25 12:18:25;;;;;;;4.55;2.13;;;20.10;55.80;;;;;;5134698;28;20050;-11
2022/10/25 12:20:53;;;;;;;2.50;1.85;;;20.20;55.70;;;;;;5116623;28;20074;-11
2022/10/25 12:23:23;;;;;;;3.38;1.98;;;20.20;55.60;;;;;;5134686;28;20125;-11
2022/10/25 12:25:54;;;;;;;3.67;2.08;;;20.20;55.60;;;;;;5134782;28;20085;-11
2022/10/25 12:28:43;;;;;;;2.75;1.80;;;20.20;55.60;;;;;;5134865;28;20047;-11
2022/10/25 12:31:14;;;;;;;5.72;2.00;;;20.20;55.50;;;;;;5134524;28;20054;-11
2022/10/25 12:33:45;;;;;;;2.70;1.70;;;20.20;55.50;;;;;;5134583;28;20058;-11
2022/10/25 12:36:37;;;;;;;3.55;2.00;;;20.20;55.50;;;;;;5134448;28;20284;-11
2022/10/25 12:39:31;;;;;;;2.58;1.67;;;20.20;55.50;;;;;;5134392;28;20478;-11
2022/10/25 12:42:05;;;;;;;2.55;2.08;;;20.20;55.50;;;;;;5134102;28;20051;-11
2022/10/25 12:44:52;;;;;;;2.28;1.60;;;20.20;55.60;;;;;;5134698;28;20046;-11
2022/10/25 12:47:48;;;;;;;3.60;1.92;;;20.20;55.60;;;;;;5134484;28;20436;-11
2022/10/25 12:50:37;;;;;;;2.03;1.52;;;20.20;55.60;;;;;;5134470;28;20071;-11
2022/10/25 12:53:09;;;;;;;2.38;1.70;;;20.20;55.60;;;;;;5134062;28;20055;-11
2022/10/25 12:55:53;;;;;;;2.53;1.83;;;20.20;55.60;;;;;;5133965;28;20058;-11
2022/10/25 12:58:46;;;;;;;3.05;1.83;;;20.10;55.60;;;;;;5134039;28;20130;-11
2022/10/25 13:01:31;;;;;;;1.92;1.77;;;20.10;55.60;;;;;;5133706;27;20066;-11
2022/10/25 13:04:34;;;;;;;3.05;1.80;;;20.10;55.70;;;;;;5134284;28;20057;-11
2022/10/25 13:07:04;;;;;;;3.80;2.08;;;20.10;55.70;;;;;;5134043;28;20035;-11
2022/10/25 13:09:32;;;;;;;2.45;1.92;;;20.10;55.70;;;;;;5134052;28;20395;-11